Time;durP1;ratioP1;P1;durP2;ratioP2;P2;SDS_P1;SDS_P2;PMS_P1;PMS_P2;Temp;Humidity;BMP_temperature;BMP_pressure;BME280_temperature;BME280_humidity;BME280_pressure;Samples;Min_cycle;Max_cycle;Signal;HPM_P1;HPM_P2
2021/08/21 00:01:04;;;;;;;0.30;0.30;;;15.30;99.90;;;;;;5055806;28;20408;-68
2021/08/21 00:03:30;;;;;;;0.30;0.30;;;15.20;99.90;;;;;;5055924;28;20467;-68
2021/08/21 00:05:55;;;;;;;0.30;0.30;;;15.20;99.90;;;;;;5055621;28;20846;-65
2021/08/21 00:08:21;;;;;;;0.30;0.30;;;15.20;99.90;;;;;;5055471;28;20198;-66
2021/08/21 00:10:47;;;;;;;0.30;0.30;;;15.20;99.90;;;;;;5055631;28;20173;-66
2021/08/21 00:13:12;;;;;;;0.30;0.30;;;15.20;99.90;;;;;;5055760;28;20166;-66
2021/08/21 00:15:38;;;;;;;1.40;0.87;;;15.10;99.90;;;;;;5055324;28;20209;-68
2021/08/21 00:18:04;;;;;;;0.30;0.30;;;15.10;99.90;;;;;;5055450;28;20175;-66
2021/08/21 00:20:29;;;;;;;0.30;0.30;;;15.10;99.90;;;;;;5055319;28;20227;-67
2021/08/21 00:22:55;;;;;;;0.30;0.30;;;15.10;99.90;;;;;;5055485;28;20175;-66
2021/08/21 00:25:21;;;;;;;0.30;0.30;;;15.20;99.90;;;;;;5055300;28;20190;-67
2021/08/21 00:27:46;;;;;;;0.30;0.30;;;15.20;99.90;;;;;;5055336;28;20170;-67
2021/08/21 00:30:12;;;;;;;0.30;0.30;;;15.20;99.90;;;;;;5055300;28;20695;-67
2021/08/21 00:32:38;;;;;;;0.30;0.30;;;15.20;99.90;;;;;;5055167;28;20216;-68
2021/08/21 00:35:06;;;;;;;0.30;0.30;;;15.20;99.90;;;;;;5055114;28;20806;-67
2021/08/21 00:37:31;;;;;;;0.30;0.30;;;15.20;99.90;;;;;;5055394;28;20194;-66
2021/08/21 00:39:57;;;;;;;0.30;0.30;;;15.10;99.90;;;;;;5055014;28;20412;-67
2021/08/21 00:42:22;;;;;;;0.30;0.30;;;15.10;99.90;;;;;;5055255;28;20213;-67
2021/08/21 00:44:48;;;;;;;0.30;0.30;;;15.10;99.90;;;;;;5055041;28;20276;-66
2021/08/21 00:47:18;;;;;;;0.30;0.30;;;15.10;99.90;;;;;;5054928;28;20640;-67
2021/08/21 00:49:46;;;;;;;0.30;0.30;;;15.10;99.90;;;;;;5054551;28;20251;-67
2021/08/21 00:52:19;;;;;;;0.30;0.30;;;15.10;99.90;;;;;;5054903;28;20428;-66
2021/08/21 00:54:45;;;;;;;0.30;0.30;;;15.10;99.90;;;;;;5055017;28;20914;-66
2021/08/21 00:57:12;;;;;;;0.30;0.30;;;15.10;99.90;;;;;;5054735;28;20554;-66
2021/08/21 00:59:40;;;;;;;0.30;0.30;;;15.00;99.90;;;;;;5054582;28;20175;-66
2021/08/21 01:02:06;;;;;;;0.30;0.30;;;15.00;99.90;;;;;;5054887;28;20462;-68
2021/08/21 01:04:37;;;;;;;0.40;0.40;;;14.90;99.90;;;;;;5054567;28;20432;-68
2021/08/21 01:07:04;;;;;;;0.33;0.33;;;14.90;99.90;;;;;;5054604;28;20419;-65
2021/08/21 01:09:30;;;;;;;0.30;0.30;;;14.90;99.90;;;;;;5054292;28;20468;-67
2021/08/21 01:11:56;;;;;;;0.30;0.30;;;15.00;99.90;;;;;;5054673;28;20413;-67
2021/08/21 01:14:24;;;;;;;0.40;0.40;;;15.00;99.90;;;;;;5055073;28;20171;-66
2021/08/21 01:16:50;;;;;;;0.30;0.30;;;15.00;99.90;;;;;;5054091;28;20185;-68
2021/08/21 01:19:19;;;;;;;0.30;0.30;;;15.00;99.90;;;;;;5054231;28;20419;-66
2021/08/21 01:21:45;;;;;;;0.30;0.30;;;15.00;99.90;;;;;;5054229;28;20241;-66
2021/08/21 01:24:12;;;;;;;0.30;0.30;;;15.00;99.90;;;;;;5054549;28;20474;-67
2021/08/21 01:26:54;;;;;;;0.30;0.30;;;15.00;99.90;;;;;;5054088;28;20483;-67
2021/08/21 01:29:20;;;;;;;0.30;0.30;;;14.90;99.90;;;;;;5053944;28;20452;-68
2021/08/21 01:31:47;;;;;;;0.30;0.30;;;15.00;99.90;;;;;;5054217;28;20908;-67
2021/08/21 01:34:14;;;;;;;0.30;0.30;;;15.00;99.90;;;;;;5054288;28;20945;-67
2021/08/21 01:36:45;;;;;;;0.30;0.30;;;15.00;99.90;;;;;;5053960;28;20432;-66
2021/08/21 01:39:12;;;;;;;0.30;0.30;;;15.00;99.90;;;;;;5053842;28;20989;-66
2021/08/21 01:41:40;;;;;;;0.30;0.30;;;15.00;99.90;;;;;;5053922;28;20413;-67
2021/08/21 01:44:14;;;;;;;0.30;0.30;;;15.00;99.90;;;;;;5054324;28;20401;-67
2021/08/21 01:46:41;;;;;;;0.30;0.30;;;15.00;99.90;;;;;;5053805;28;20802;-66
2021/08/21 01:49:09;;;;;;;0.30;0.30;;;14.90;99.90;;;;;;5053618;28;20457;-66
2021/08/21 01:51:36;;;;;;;0.30;0.30;;;14.90;99.90;;;;;;5053684;28;20405;-66
2021/08/21 01:54:02;;;;;;;0.30;0.30;;;14.90;99.90;;;;;;5054126;28;20547;-68
2021/08/21 01:56:28;;;;;;;0.30;0.30;;;14.90;99.90;;;;;;5053643;28;20922;-68
2021/08/21 01:58:54;;;;;;;0.30;0.30;;;14.80;99.90;;;;;;5053480;28;20404;-66
2021/08/21 02:01:20;;;;;;;0.30;0.30;;;14.80;99.90;;;;;;5053585;28;20636;-66
2021/08/21 02:03:46;;;;;;;0.30;0.30;;;14.80;99.90;;;;;;5053642;28;20650;-66
2021/08/21 02:06:16;;;;;;;0.40;0.40;;;14.80;99.90;;;;;;5053647;28;20435;-67
2021/08/21 02:08:41;;;;;;;0.30;0.30;;;14.90;99.90;;;;;;5053229;28;20460;-66
2021/08/21 02:11:07;;;;;;;0.30;0.30;;;14.90;99.90;;;;;;5053516;28;20496;-67
2021/08/21 02:13:34;;;;;;;0.30;0.30;;;14.90;99.90;;;;;;5053514;28;20223;-66
2021/08/21 02:15:59;;;;;;;0.30;0.30;;;14.80;99.90;;;;;;5053185;28;20449;-67
2021/08/21 02:18:25;;;;;;;0.40;0.40;;;14.80;99.90;;;;;;5053300;28;20431;-67
2021/08/21 02:20:51;;;;;;;0.30;0.30;;;14.80;99.90;;;;;;5053390;28;20178;-67
2021/08/21 02:23:16;;;;;;;0.30;0.30;;;14.80;99.90;;;;;;5053431;28;20222;-67
2021/08/21 02:25:42;;;;;;;0.30;0.30;;;14.80;99.90;;;;;;5053245;28;20229;-67
2021/08/21 02:28:10;;;;;;;0.30;0.30;;;14.90;99.90;;;;;;5052673;28;20244;-67
2021/08/21 02:30:37;;;;;;;0.30;0.30;;;14.90;99.90;;;;;;5053063;28;20162;-67
2021/08/21 02:33:04;;;;;;;0.30;0.30;;;14.90;99.90;;;;;;5053440;28;20412;-67
2021/08/21 02:35:30;;;;;;;0.30;0.30;;;14.90;99.90;;;;;;5053337;28;20432;-66
2021/08/21 02:37:55;;;;;;;0.30;0.30;;;14.90;99.90;;;;;;5053670;28;20412;-68
2021/08/21 02:40:22;;;;;;;0.30;0.30;;;14.80;99.90;;;;;;5053088;28;20436;-67
2021/08/21 02:42:49;;;;;;;0.30;0.30;;;14.80;99.90;;;;;;5053400;28;20621;-66
2021/08/21 02:45:15;;;;;;;0.30;0.30;;;14.70;99.90;;;;;;5053392;28;20519;-68
2021/08/21 02:47:41;;;;;;;0.30;0.30;;;14.70;99.90;;;;;;5053157;28;20507;-68
2021/08/21 02:50:07;;;;;;;0.30;0.30;;;14.70;99.90;;;;;;5052847;28;20459;-67
2021/08/21 02:52:33;;;;;;;0.30;0.30;;;14.70;99.90;;;;;;5053096;28;20178;-67
2021/08/21 02:54:59;;;;;;;0.30;0.30;;;14.70;99.90;;;;;;5053209;28;20781;-67
2021/08/21 02:57:24;;;;;;;0.87;0.87;;;14.80;99.90;;;;;;5053070;28;20624;-68
2021/08/21 02:59:50;;;;;;;0.30;0.30;;;14.70;99.90;;;;;;5053192;28;20186;-65
2021/08/21 03:02:16;;;;;;;0.40;0.40;;;14.70;99.90;;;;;;5053237;28;20560;-68
2021/08/21 03:04:41;;;;;;;0.50;0.50;;;14.70;99.90;;;;;;5053141;28;20201;-67
2021/08/21 03:07:07;;;;;;;0.30;0.30;;;14.70;99.90;;;;;;5053430;28;20581;-66
2021/08/21 03:09:33;;;;;;;0.30;0.30;;;14.60;99.90;;;;;;5052764;28;20320;-68
2021/08/21 03:11:58;;;;;;;0.30;0.30;;;14.70;99.90;;;;;;5053193;28;20525;-68
2021/08/21 03:14:24;;;;;;;0.30;0.30;;;14.70;99.90;;;;;;5053128;28;20245;-66
2021/08/21 03:16:49;;;;;;;0.30;0.30;;;14.60;99.90;;;;;;5052811;28;20196;-68
2021/08/21 03:19:15;;;;;;;0.30;0.30;;;14.60;99.90;;;;;;5052762;28;20210;-65
2021/08/21 03:21:41;;;;;;;0.30;0.30;;;14.60;99.90;;;;;;5053070;28;20270;-67
2021/08/21 03:24:06;;;;;;;0.30;0.30;;;14.60;99.90;;;;;;5052841;28;20597;-66
2021/08/21 03:26:32;;;;;;;0.30;0.30;;;14.50;99.90;;;;;;5053163;28;20190;-68
2021/08/21 03:28:58;;;;;;;0.30;0.30;;;14.60;99.90;;;;;;5052799;28;20229;-66
2021/08/21 03:31:24;;;;;;;0.40;0.40;;;14.50;99.90;;;;;;5052925;28;20170;-67
2021/08/21 03:33:49;;;;;;;0.30;0.30;;;14.50;99.90;;;;;;5052832;28;20178;-66
2021/08/21 03:36:15;;;;;;;0.30;0.30;;;14.50;99.90;;;;;;5052613;28;20243;-67
2021/08/21 03:38:41;;;;;;;0.30;0.30;;;14.50;99.90;;;;;;5052508;28;20187;-67
2021/08/21 03:41:06;;;;;;;0.30;0.30;;;14.40;99.90;;;;;;5055515;28;20182;-67
2021/08/21 03:43:32;;;;;;;0.30;0.30;;;14.40;99.90;;;;;;5056430;28;20166;-67
2021/08/21 03:45:58;;;;;;;0.30;0.30;;;14.40;99.90;;;;;;5056285;28;20194;-66
2021/08/21 03:48:23;;;;;;;0.43;0.43;;;14.40;99.90;;;;;;5055828;28;20284;-66
2021/08/21 03:50:49;;;;;;;0.50;0.50;;;14.40;99.90;;;;;;5056043;28;20257;-68
2021/08/21 03:53:15;;;;;;;0.30;0.30;;;14.50;99.90;;;;;;5056286;28;20761;-67
2021/08/21 03:55:40;;;;;;;0.30;0.30;;;14.50;99.90;;;;;;5055894;28;20193;-66
2021/08/21 03:58:06;;;;;;;0.30;0.30;;;14.50;99.90;;;;;;5055831;28;20202;-67
2021/08/21 04:00:32;;;;;;;0.30;0.30;;;14.50;99.90;;;;;;5055894;28;20254;-68
2021/08/21 04:02:58;;;;;;;0.30;0.30;;;14.50;99.90;;;;;;5055956;28;20171;-67
2021/08/21 04:05:26;;;;;;;0.30;0.30;;;14.50;99.90;;;;;;5055726;28;20455;-66
2021/08/21 04:07:51;;;;;;;0.30;0.30;;;14.60;99.90;;;;;;5055785;28;20176;-65
2021/08/21 04:10:17;;;;;;;0.30;0.30;;;14.60;99.90;;;;;;5055476;28;20456;-66
2021/08/21 04:12:43;;;;;;;0.30;0.30;;;14.60;99.90;;;;;;5055878;28;20539;-67
2021/08/21 04:15:09;;;;;;;0.30;0.30;;;14.50;99.90;;;;;;5055754;28;20536;-67
2021/08/21 04:17:34;;;;;;;0.30;0.30;;;14.60;99.90;;;;;;5055500;28;20454;-68
2021/08/21 04:20:03;;;;;;;0.30;0.30;;;14.60;99.90;;;;;;5055351;28;20893;-66
2021/08/21 04:22:29;;;;;;;0.30;0.30;;;14.60;99.90;;;;;;5054159;28;20217;-68
2021/08/21 04:24:54;;;;;;;0.37;0.37;;;14.70;99.90;;;;;;5055585;28;20457;-66
2021/08/21 04:27:20;;;;;;;0.30;0.30;;;14.70;99.90;;;;;;5055465;28;20181;-66
2021/08/21 04:29:46;;;;;;;0.30;0.30;;;14.70;99.90;;;;;;5055131;28;20194;-66
2021/08/21 04:32:11;;;;;;;0.30;0.30;;;14.70;99.90;;;;;;5055387;28;20218;-67
2021/08/21 04:34:37;;;;;;;0.30;0.30;;;14.80;99.90;;;;;;5055116;28;20407;-66
2021/08/21 04:37:04;;;;;;;0.30;0.30;;;14.80;99.90;;;;;;5055391;28;20170;-67
2021/08/21 04:39:30;;;;;;;0.30;0.30;;;14.80;99.90;;;;;;5053651;28;20193;-67
2021/08/21 04:41:55;;;;;;;0.30;0.30;;;14.80;99.90;;;;;;5055181;28;20886;-66
2021/08/21 04:44:21;;;;;;;0.30;0.30;;;14.80;99.90;;;;;;5055238;28;20436;-67
2021/08/21 04:46:46;;;;;;;0.30;0.30;;;14.70;99.90;;;;;;5054900;28;20190;-68
2021/08/21 04:49:12;;;;;;;1.07;0.97;;;14.70;99.90;;;;;;5054743;28;20198;-66
2021/08/21 04:51:38;;;;;;;0.30;0.30;;;14.70;99.90;;;;;;5054290;28;20178;-67
2021/08/21 04:54:03;;;;;;;0.30;0.30;;;14.70;99.90;;;;;;5054970;28;20211;-67
2021/08/21 04:56:29;;;;;;;0.30;0.30;;;14.70;99.90;;;;;;5054811;28;20598;-66
2021/08/21 04:58:55;;;;;;;0.30;0.30;;;14.80;99.90;;;;;;5054746;28;20311;-68
2021/08/21 05:01:21;;;;;;;0.30;0.30;;;14.80;99.90;;;;;;5054860;28;20543;-66
2021/08/21 05:03:47;;;;;;;0.30;0.30;;;14.80;99.90;;;;;;5054690;28;20176;-67
2021/08/21 05:06:13;;;;;;;0.30;0.30;;;14.80;99.90;;;;;;5054549;28;20429;-67
2021/08/21 05:08:38;;;;;;;0.30;0.30;;;14.90;99.90;;;;;;5054449;28;20593;-65
2021/08/21 05:11:04;;;;;;;0.40;0.40;;;14.90;99.90;;;;;;5054820;28;20631;-65
2021/08/21 05:13:31;;;;;;;0.30;0.30;;;15.00;99.90;;;;;;5053360;28;20184;-66
2021/08/21 05:15:57;;;;;;;0.30;0.30;;;15.00;99.90;;;;;;5054355;28;20552;-67
2021/08/21 05:18:28;;;;;;;0.30;0.30;;;15.00;99.90;;;;;;5054234;28;20409;-66
2021/08/21 05:21:04;;;;;;;0.30;0.30;;;15.00;99.90;;;;;;5054634;28;20511;-65
2021/08/21 05:23:29;;;;;;;0.30;0.30;;;15.10;99.90;;;;;;5054418;28;20411;-67
2021/08/21 05:25:57;;;;;;;0.30;0.30;;;15.10;99.90;;;;;;5054161;28;20429;-67
2021/08/21 05:28:23;;;;;;;0.30;0.30;;;15.10;99.90;;;;;;5053857;28;20174;-67
2021/08/21 05:30:49;;;;;;;0.30;0.30;;;15.30;99.90;;;;;;5054111;28;20917;-66
2021/08/21 05:33:17;;;;;;;0.30;0.30;;;15.40;99.90;;;;;;5054078;28;20171;-67
2021/08/21 05:35:43;;;;;;;0.30;0.30;;;15.70;99.90;;;;;;5054658;28;20198;-67
2021/08/21 05:38:09;;;;;;;0.30;0.30;;;16.30;99.90;;;;;;5054149;28;20578;-66
2021/08/21 05:40:36;;;;;;;0.30;0.30;;;16.60;99.90;;;;;;5053985;28;20397;-67
2021/08/21 05:43:03;;;;;;;0.30;0.30;;;16.90;99.90;;;;;;5054064;28;20494;-67
2021/08/21 05:45:28;;;;;;;0.30;0.30;;;17.40;99.90;;;;;;5053734;28;20443;-67
2021/08/21 05:47:54;;;;;;;0.30;0.30;;;18.00;99.90;;;;;;5054186;28;20404;-66
2021/08/21 05:50:24;;;;;;;0.30;0.30;;;18.40;99.90;;;;;;5053655;28;20198;-67
2021/08/21 05:52:51;;;;;;;0.40;0.40;;;18.70;99.90;;;;;;5053915;28;20176;-65
2021/08/21 05:55:17;;;;;;;0.30;0.30;;;18.90;99.90;;;;;;5053861;28;20457;-66
2021/08/21 05:57:43;;;;;;;1.13;0.83;;;19.20;99.40;;;;;;5053881;28;20419;-68
2021/08/21 06:00:11;;;;;;;0.30;0.30;;;19.50;99.50;;;;;;5053595;28;20404;-66
2021/08/21 06:02:37;;;;;;;0.30;0.30;;;19.80;99.10;;;;;;5053819;28;20225;-66
2021/08/21 06:05:02;;;;;;;0.30;0.30;;;19.90;97.50;;;;;;5053574;28;20473;-67
2021/08/21 06:07:32;;;;;;;0.30;0.30;;;19.90;97.10;;;;;;5053574;28;20637;-68
2021/08/21 06:09:58;;;;;;;0.30;0.30;;;20.10;97.20;;;;;;5053242;28;20490;-67
2021/08/21 06:12:23;;;;;;;0.30;0.30;;;20.30;97.30;;;;;;5053501;28;20847;-68
2021/08/21 06:14:49;;;;;;;0.30;0.30;;;20.60;96.90;;;;;;5053592;28;20237;-66
2021/08/21 06:17:15;;;;;;;0.30;0.30;;;21.10;96.70;;;;;;5053567;28;20235;-66
2021/08/21 06:19:40;;;;;;;0.30;0.30;;;21.40;96.00;;;;;;5053429;28;20182;-66
2021/08/21 06:22:06;;;;;;;0.30;0.30;;;21.70;95.80;;;;;;5053561;28;20197;-67
2021/08/21 06:24:32;;;;;;;0.80;0.80;;;22.00;94.80;;;;;;5053469;28;20174;-67
2021/08/21 06:26:58;;;;;;;0.30;0.30;;;22.30;94.50;;;;;;5053479;28;20898;-68
2021/08/21 06:29:24;;;;;;;0.30;0.30;;;22.30;94.80;;;;;;5053020;28;20449;-68
2021/08/21 06:31:50;;;;;;;0.30;0.30;;;22.30;95.20;;;;;;5053276;28;20252;-68
2021/08/21 06:34:15;;;;;;;0.30;0.30;;;22.20;94.60;;;;;;5053191;28;20165;-68
2021/08/21 06:36:41;;;;;;;0.33;0.33;;;22.10;95.00;;;;;;5053109;28;20566;-68
2021/08/21 06:39:07;;;;;;;0.47;0.47;;;22.10;95.90;;;;;;5053078;28;20188;-68
2021/08/21 06:41:32;;;;;;;0.30;0.30;;;22.20;95.80;;;;;;5053431;28;20178;-68
2021/08/21 06:43:58;;;;;;;0.30;0.30;;;22.50;96.00;;;;;;5053178;28;20214;-68
2021/08/21 06:46:23;;;;;;;0.30;0.30;;;22.90;95.40;;;;;;5053102;28;20222;-67
2021/08/21 06:48:49;;;;;;;0.30;0.30;;;23.20;94.80;;;;;;5053085;28;20202;-67
2021/08/21 06:51:15;;;;;;;0.30;0.30;;;23.40;94.10;;;;;;5053264;28;20211;-68
2021/08/21 06:53:40;;;;;;;0.30;0.30;;;23.50;94.20;;;;;;5053239;28;20184;-66
2021/08/21 06:56:07;;;;;;;0.30;0.30;;;23.50;93.90;;;;;;5053035;28;20232;-68
2021/08/21 06:58:33;;;;;;;0.80;0.80;;;23.70;94.20;;;;;;5052836;28;20304;-68
2021/08/21 07:00:59;;;;;;;0.30;0.30;;;24.00;93.40;;;;;;5053094;28;20420;-68
2021/08/21 07:03:25;;;;;;;0.30;0.30;;;24.30;92.80;;;;;;5053135;28;20379;-66
2021/08/21 07:05:51;;;;;;;0.30;0.30;;;24.70;92.70;;;;;;5052897;28;20273;-66
2021/08/21 07:08:17;;;;;;;0.30;0.30;;;25.00;91.90;;;;;;5052737;28;20383;-67
2021/08/21 07:10:43;;;;;;;0.30;0.30;;;25.40;91.60;;;;;;5052823;28;20375;-68
2021/08/21 07:13:08;;;;;;;0.30;0.30;;;26.00;91.00;;;;;;5053088;28;20404;-68
2021/08/21 07:15:34;;;;;;;0.30;0.30;;;26.70;89.20;;;;;;5054688;28;20205;-66
2021/08/21 07:18:00;;;;;;;0.40;0.40;;;27.30;87.00;;;;;;5057170;28;20162;-68
2021/08/21 07:20:25;;;;;;;0.30;0.30;;;28.00;83.00;;;;;;5056673;28;20173;-66
2021/08/21 07:22:51;;;;;;;0.30;0.30;;;28.70;82.50;;;;;;5057119;28;20620;-68
2021/08/21 07:25:17;;;;;;;0.30;0.30;;;29.40;80.10;;;;;;5056455;28;20284;-68
2021/08/21 07:27:43;;;;;;;0.30;0.30;;;29.60;77.40;;;;;;5056811;28;20178;-67
2021/08/21 07:30:09;;;;;;;0.30;0.30;;;30.20;76.90;;;;;;5056266;28;20466;-66
2021/08/21 07:32:35;;;;;;;0.50;0.50;;;30.50;73.70;;;;;;5056387;28;20174;-66
2021/08/21 07:35:03;;;;;;;0.30;0.30;;;30.80;71.10;;;;;;5056468;28;20474;-66
2021/08/21 07:37:29;;;;;;;0.40;0.40;;;31.60;69.90;;;;;;5056295;28;20194;-67
2021/08/21 07:39:55;;;;;;;0.70;0.50;;;32.40;66.20;;;;;;5056269;28;20412;-69
2021/08/21 07:42:21;;;;;;;0.50;0.50;;;33.00;62.10;;;;;;5056460;28;20409;-67
2021/08/21 07:44:46;;;;;;;0.30;0.30;;;33.80;58.40;;;;;;5056487;28;20556;-66
2021/08/21 07:47:12;;;;;;;2.40;0.70;;;34.00;56.10;;;;;;5056261;28;20170;-68
2021/08/21 07:49:37;;;;;;;0.30;0.30;;;34.20;58.30;;;;;;5055892;28;20202;-68
2021/08/21 07:52:03;;;;;;;0.30;0.30;;;34.00;54.70;;;;;;5056224;28;20174;-69
2021/08/21 07:54:29;;;;;;;0.30;0.30;;;33.50;56.40;;;;;;5055955;28;20568;-67
2021/08/21 07:56:55;;;;;;;0.43;0.43;;;32.90;58.30;;;;;;5055934;28;20412;-66
2021/08/21 07:59:20;;;;;;;0.30;0.30;;;32.10;59.40;;;;;;5055860;28;20249;-68
2021/08/21 08:01:46;;;;;;;0.30;0.30;;;32.00;59.30;;;;;;5056209;28;20170;-68
2021/08/21 08:04:11;;;;;;;0.30;0.30;;;31.80;58.30;;;;;;5056077;28;20192;-68
2021/08/21 08:06:37;;;;;;;0.30;0.30;;;31.80;61.00;;;;;;5055724;28;20641;-68
2021/08/21 08:09:03;;;;;;;0.30;0.30;;;31.00;60.70;;;;;;5055990;28;20206;-67
2021/08/21 08:11:28;;;;;;;1.13;0.80;;;30.50;61.10;;;;;;5055904;28;20170;-68
2021/08/21 08:13:54;;;;;;;0.30;0.30;;;30.90;61.80;;;;;;5055700;28;20655;-68
2021/08/21 08:16:20;;;;;;;0.30;0.30;;;31.20;58.70;;;;;;5055517;28;20235;-66
2021/08/21 08:18:45;;;;;;;0.30;0.30;;;31.20;60.10;;;;;;5055458;28;20175;-68
2021/08/21 08:21:14;;;;;;;0.30;0.30;;;31.20;57.70;;;;;;5055683;28;20178;-66
2021/08/21 08:23:40;;;;;;;0.30;0.30;;;30.60;57.90;;;;;;5055379;28;20206;-66
2021/08/21 08:26:06;;;;;;;0.33;0.33;;;30.60;59.30;;;;;;5054416;28;20514;-67
2021/08/21 08:28:31;;;;;;;0.30;0.30;;;30.70;58.30;;;;;;5054848;28;20188;-68
2021/08/21 08:30:57;;;;;;;0.50;0.40;;;30.90;59.30;;;;;;5055542;28;20181;-69
2021/08/21 08:33:23;;;;;;;0.30;0.30;;;31.20;57.50;;;;;;5055702;28;20181;-68
2021/08/21 08:35:51;;;;;;;0.50;0.50;;;31.70;57.10;;;;;;5055214;28;20280;-67
2021/08/21 08:38:18;;;;;;;0.30;0.30;;;32.50;54.50;;;;;;5055046;28;20166;-68
2021/08/21 08:40:44;;;;;;;0.37;0.37;;;32.80;52.90;;;;;;5055422;28;20434;-69
2021/08/21 08:43:10;;;;;;;0.30;0.30;;;33.30;52.80;;;;;;5055193;28;20405;-66
2021/08/21 08:45:35;;;;;;;0.30;0.30;;;33.60;53.10;;;;;;5055239;28;20948;-68
2021/08/21 08:48:02;;;;;;;0.40;0.40;;;33.30;50.80;;;;;;5055027;28;20564;-67
2021/08/21 08:50:29;;;;;;;0.30;0.30;;;32.70;52.30;;;;;;5054771;28;20221;-67
2021/08/21 08:52:54;;;;;;;0.30;0.30;;;32.50;51.90;;;;;;5054815;28;20493;-67
2021/08/21 08:55:22;;;;;;;0.30;0.30;;;32.30;52.60;;;;;;5054790;28;20862;-68
2021/08/21 08:57:49;;;;;;;0.30;0.30;;;32.70;52.90;;;;;;5055015;28;20405;-68
2021/08/21 09:00:16;;;;;;;0.30;0.30;;;33.20;51.60;;;;;;5054721;28;20932;-69
2021/08/21 09:02:51;;;;;;;0.30;0.30;;;33.10;51.30;;;;;;5054929;28;20417;-68
2021/08/21 09:05:19;;;;;;;0.30;0.30;;;33.70;51.20;;;;;;5054789;28;20424;-67
2021/08/21 09:07:56;;;;;;;0.63;0.63;;;34.00;49.30;;;;;;5055001;28;20833;-68
2021/08/21 09:10:22;;;;;;;0.30;0.30;;;33.90;49.50;;;;;;5054450;28;20458;-68
2021/08/21 09:13:07;;;;;;;0.30;0.30;;;34.30;48.30;;;;;;5054669;28;20942;-68
2021/08/21 09:15:38;;;;;;;0.30;0.30;;;33.80;47.00;;;;;;5054292;28;20241;-67
2021/08/21 09:18:25;;;;;;;0.30;0.30;;;34.30;48.60;;;;;;5054774;28;20397;-68
2021/08/21 09:20:59;;;;;;;0.30;0.30;;;34.50;47.90;;;;;;5053883;28;20428;-68
2021/08/21 09:23:28;;;;;;;0.30;0.30;;;34.50;46.50;;;;;;5054445;28;20466;-68
2021/08/21 09:26:14;;;;;;;0.30;0.30;;;34.20;46.40;;;;;;5054399;28;20498;-68
2021/08/21 09:28:45;;;;;;;0.30;0.30;;;34.10;46.20;;;;;;5054372;28;20452;-67
2021/08/21 09:31:11;;;;;;;0.40;0.40;;;34.40;47.50;;;;;;5054281;28;20397;-67
2021/08/21 09:33:42;;;;;;;0.30;0.30;;;34.80;46.70;;;;;;5054367;28;20405;-69
2021/08/21 09:36:12;;;;;;;0.30;0.30;;;34.80;46.00;;;;;;5054073;28;20197;-67
2021/08/21 09:38:40;;;;;;;0.30;0.30;;;35.10;46.10;;;;;;5053893;28;20411;-67
2021/08/21 09:41:07;;;;;;;0.50;0.40;;;35.20;45.50;;;;;;5054065;28;20492;-68
2021/08/21 09:43:35;;;;;;;0.40;0.40;;;35.20;45.30;;;;;;5054054;28;20454;-67
2021/08/21 09:46:07;;;;;;;0.30;0.30;;;34.90;45.50;;;;;;5053855;28;20486;-67
2021/08/21 09:48:33;;;;;;;0.30;0.30;;;34.90;45.80;;;;;;5053776;28;20416;-68
2021/08/21 09:50:58;;;;;;;0.30;0.30;;;34.90;45.60;;;;;;5054020;28;20412;-69
2021/08/21 09:53:35;;;;;;;0.30;0.30;;;34.10;45.60;;;;;;5053997;28;20179;-68
2021/08/21 09:56:11;;;;;;;0.30;0.30;;;33.60;47.30;;;;;;5053870;28;20186;-67
2021/08/21 09:58:36;;;;;;;0.30;0.30;;;33.90;47.00;;;;;;5053743;28;20404;-68
2021/08/21 10:01:05;;;;;;;0.30;0.30;;;34.50;48.70;;;;;;5053876;28;20424;-67
2021/08/21 10:03:31;;;;;;;0.30;0.30;;;35.30;45.50;;;;;;5053835;28;20525;-68
2021/08/21 10:05:57;;;;;;;0.30;0.30;;;35.20;44.30;;;;;;5053511;28;20425;-68
2021/08/21 10:08:28;;;;;;;0.30;0.30;;;35.30;43.80;;;;;;5053530;28;20550;-69
2021/08/21 10:10:55;;;;;;;0.30;0.30;;;35.20;43.20;;;;;;5053776;28;20400;-67
2021/08/21 10:13:30;;;;;;;0.30;0.30;;;35.80;43.30;;;;;;5053671;28;20766;-69
2021/08/21 10:15:56;;;;;;;0.30;0.30;;;36.30;45.00;;;;;;5053388;28;20823;-68
2021/08/21 10:18:23;;;;;;;0.30;0.30;;;36.80;41.90;;;;;;5053254;28;20405;-67
2021/08/21 10:20:50;;;;;;;0.30;0.30;;;37.20;42.90;;;;;;5053631;28;20401;-66
2021/08/21 10:23:23;;;;;;;0.30;0.30;;;36.90;38.40;;;;;;5053595;28;20857;-68
2021/08/21 10:26:10;;;;;;;0.30;0.30;;;36.90;40.40;;;;;;5053537;28;20914;-67
2021/08/21 10:28:41;;;;;;;0.30;0.30;;;36.90;40.10;;;;;;5053091;28;20408;-66
2021/08/21 10:31:07;;;;;;;0.30;0.30;;;37.10;40.20;;;;;;5053545;28;20786;-67
2021/08/21 10:33:52;;;;;;;0.30;0.30;;;36.70;41.90;;;;;;5053394;28;20953;-69
2021/08/21 10:36:48;;;;;;;0.30;0.30;;;36.70;42.70;;;;;;5053223;28;20428;-67
2021/08/21 10:39:19;;;;;;;0.30;0.30;;;36.60;41.90;;;;;;5053091;28;20401;-67
2021/08/21 10:41:45;;;;;;;0.30;0.30;;;36.60;41.20;;;;;;5053490;28;20823;-67
2021/08/21 10:44:10;;;;;;;0.30;0.30;;;36.60;39.30;;;;;;5053447;28;20766;-67
2021/08/21 10:46:36;;;;;;;0.30;0.30;;;36.50;42.10;;;;;;5053132;28;20428;-67
2021/08/21 10:49:03;;;;;;;0.50;0.50;;;35.60;40.80;;;;;;5051775;28;20736;-69
2021/08/21 10:51:40;;;;;;;0.30;0.30;;;35.10;39.20;;;;;;5056934;28;20508;-69
2021/08/21 10:54:32;;;;;;;0.30;0.30;;;34.80;43.90;;;;;;5057396;28;20400;-68
2021/08/21 10:57:19;;;;;;;0.30;0.30;;;34.70;40.00;;;;;;5033739;28;20421;-67
2021/08/21 10:59:47;;;;;;;0.30;0.30;;;34.10;41.40;;;;;;5056855;28;20420;-68
2021/08/21 11:02:31;;;;;;;0.30;0.30;;;33.40;44.70;;;;;;5057052;28;20466;-67
2021/08/21 11:04:58;;;;;;;0.30;0.30;;;32.80;46.20;;;;;;5057131;28;20755;-68
2021/08/21 11:07:29;;;;;;;0.30;0.30;;;32.40;47.20;;;;;;5056905;28;20413;-68
2021/08/21 11:10:18;;;;;;;0.30;0.30;;;31.70;46.40;;;;;;5056590;28;20926;-67
2021/08/21 11:12:50;;;;;;;0.30;0.30;;;31.10;46.00;;;;;;5057064;28;20411;-68
2021/08/21 11:15:18;;;;;;;0.30;0.30;;;30.30;47.20;;;;;;5056979;28;20481;-68
2021/08/21 11:17:44;;;;;;;0.30;0.30;;;30.00;52.10;;;;;;5056745;28;20412;-68
2021/08/21 11:20:22;;;;;;;0.30;0.30;;;29.80;50.40;;;;;;5056715;28;20486;-68
2021/08/21 11:23:07;;;;;;;0.50;0.50;;;29.60;48.90;;;;;;5056902;28;20913;-68
2021/08/21 11:25:37;;;;;;;0.30;0.30;;;29.50;53.90;;;;;;5056489;28;20451;-68
2021/08/21 11:28:09;;;;;;;0.30;0.30;;;29.40;52.50;;;;;;5056830;28;20424;-68
2021/08/21 11:30:36;;;;;;;0.30;0.30;;;29.20;54.10;;;;;;5056466;28;20448;-67
2021/08/21 11:33:03;;;;;;;0.30;0.30;;;29.30;55.10;;;;;;5056617;28;20763;-67
2021/08/21 11:35:45;;;;;;;0.30;0.30;;;29.30;51.70;;;;;;5056349;28;20451;-66
2021/08/21 11:38:14;;;;;;;0.30;0.30;;;29.40;52.60;;;;;;5056446;28;20404;-68
2021/08/21 11:40:48;;;;;;;1.90;0.60;;;29.40;52.40;;;;;;5056430;28;20818;-66
2021/08/21 11:43:16;;;;;;;0.30;0.30;;;29.40;54.50;;;;;;5056436;28;20470;-66
2021/08/21 11:45:43;;;;;;;0.30;0.30;;;29.10;53.70;;;;;;5056416;28;20428;-68
2021/08/21 11:48:09;;;;;;;0.30;0.30;;;29.00;53.30;;;;;;5056168;28;20952;-68
2021/08/21 11:50:36;;;;;;;0.30;0.30;;;28.80;53.70;;;;;;5055984;28;20802;-67
2021/08/21 11:53:04;;;;;;;0.30;0.30;;;28.80;53.10;;;;;;5056202;28;20491;-68
2021/08/21 11:55:32;;;;;;;0.40;0.40;;;28.80;53.50;;;;;;5056011;28;20837;-68
2021/08/21 11:57:58;;;;;;;0.30;0.30;;;28.90;53.00;;;;;;5055912;28;20488;-68
2021/08/21 12:00:26;;;;;;;0.30;0.30;;;29.00;52.20;;;;;;5055552;28;20401;-67
2021/08/21 12:02:59;;;;;;;0.40;0.40;;;29.00;53.90;;;;;;5055937;28;20438;-68
2021/08/21 12:05:45;;;;;;;0.30;0.30;;;28.90;53.40;;;;;;5055949;28;20957;-69
2021/08/21 12:08:19;;;;;;;0.30;0.30;;;28.90;54.40;;;;;;5055439;28;20416;-67
2021/08/21 12:11:01;;;;;;;0.30;0.30;;;28.80;53.50;;;;;;5055949;28;20456;-68
2021/08/21 12:13:34;;;;;;;0.30;0.30;;;28.80;53.40;;;;;;5055857;28;20895;-68
2021/08/21 12:16:15;;;;;;;0.30;0.30;;;28.80;52.20;;;;;;5055617;28;20453;-68
2021/08/21 12:18:44;;;;;;;0.30;0.30;;;28.50;51.70;;;;;;5055570;28;20428;-68
2021/08/21 12:21:17;;;;;;;0.40;0.40;;;28.30;52.10;;;;;;5055532;28;20484;-69
2021/08/21 12:23:44;;;;;;;0.30;0.30;;;28.10;52.40;;;;;;5055804;28;20817;-68
2021/08/21 12:26:10;;;;;;;0.30;0.30;;;28.10;52.50;;;;;;5055431;28;20840;-66
2021/08/21 12:28:41;;;;;;;0.30;0.30;;;28.10;54.10;;;;;;5055303;28;20405;-67
2021/08/21 12:31:10;;;;;;;0.30;0.30;;;28.00;53.60;;;;;;5055556;28;20401;-69
2021/08/21 12:33:46;;;;;;;0.30;0.30;;;28.20;56.40;;;;;;5055312;28;20758;-68
2021/08/21 12:36:24;;;;;;;0.30;0.30;;;28.20;54.70;;;;;;5055337;28;20412;-66
2021/08/21 12:39:08;;;;;;;0.30;0.30;;;28.20;55.10;;;;;;5055108;28;20767;-68
2021/08/21 12:41:55;;;;;;;0.30;0.30;;;28.20;52.80;;;;;;5055078;28;20503;-68
2021/08/21 12:44:39;;;;;;;0.30;0.30;;;28.00;54.10;;;;;;5055371;28;20397;-68
2021/08/21 12:47:15;;;;;;;0.30;0.30;;;28.00;54.70;;;;;;5055261;28;20388;-68
2021/08/21 12:49:42;;;;;;;0.30;0.30;;;28.00;55.60;;;;;;5054845;28;20554;-69
2021/08/21 12:52:23;;;;;;;0.30;0.30;;;27.90;56.70;;;;;;5055124;28;20403;-68